Time;durP1;ratioP1;P1;durP2;ratioP2;P2;SDS_P1;SDS_P2;PMS_P1;PMS_P2;Temp;Humidity;BMP_temperature;BMP_pressure;BME280_temperature;BME280_humidity;BME280_pressure;Samples;Min_cycle;Max_cycle;Signal;HPM_P1;HPM_P2
2023/04/21 00:07:58;;;;;;;38.90;18.05;;;;;;;7.53;86.47;101796.94;6042100;19;20006;-72
2023/04/21 00:10:07;;;;;;;35.42;15.90;;;;;;;7.62;86.13;101790.72;6043336;19;20514;-71
2023/04/21 00:12:15;;;;;;;42.47;18.23;;;;;;;7.53;86.43;101801.28;6042373;19;20010;-72
2023/04/21 00:14:27;;;;;;;35.70;16.55;;;;;;;7.48;87.24;101806.59;6040874;19;20436;-72
2023/04/21 00:17:00;;;;;;;41.85;17.02;;;;;;;7.41;87.08;101805.78;6012763;19;20006;-72
2023/04/21 00:19:13;;;;;;;40.53;18.65;;;;;;;7.45;88.05;101806.59;6040728;19;20287;-72
2023/04/21 00:21:33;;;;;;;38.40;16.45;;;;;;;7.43;87.83;101814.50;6051888;19;20298;-72
2023/04/21 00:23:46;;;;;;;41.40;18.80;;;;;;;7.41;88.04;101816.25;6051742;19;20007;-73
2023/04/21 00:26:01;;;;;;;42.05;17.75;;;;;;;7.37;88.23;101811.06;6050422;19;20010;-73
2023/04/21 00:28:12;;;;;;;37.58;16.17;;;;;;;7.33;89.06;101818.09;6029925;19;20692;-72
2023/04/21 00:30:23;;;;;;;39.20;18.10;;;;;;;7.37;88.65;101821.53;6050730;19;20251;-73
2023/04/21 00:32:33;;;;;;;43.22;18.10;;;;;;;7.34;88.97;101822.44;6029065;19;20303;-72
2023/04/21 00:34:46;;;;;;;41.42;17.73;;;;;;;7.33;89.33;101812.88;6041751;19;20091;-73
2023/04/21 00:37:09;;;;;;;;;;;;;;;7.32;89.58;101800.69;6045875;19;20902;-73
2023/04/21 00:39:39;;;;;;;37.58;16.38;;;;;;;7.38;89.57;101807.59;6019970;19;20339;-72
2023/04/21 00:41:48;;;;;;;40.65;17.70;;;;;;;7.36;89.35;101802.34;6047524;19;20369;-72
2023/04/21 00:44:09;;;;;;;40.38;17.85;;;;;;;7.35;89.67;101789.31;6050013;19;20020;-72
2023/04/21 00:46:24;;;;;;;41.65;15.95;;;;;;;7.28;89.63;101778.06;6044675;19;20482;-73
2023/04/21 00:48:48;;;;;;;37.15;15.80;;;;;;;7.32;89.83;101773.66;6023660;19;20090;-70
2023/04/21 00:51:01;;;;;;;42.03;18.92;;;;;;;7.28;89.96;101772.84;6022975;19;20006;-70
2023/04/21 00:53:19;;;;;;;37.88;17.45;;;;;;;7.28;90.03;101767.59;6044692;19;20693;-71
2023/04/21 00:55:39;;;;;;;40.25;17.85;;;;;;;7.28;89.85;101764.97;6044690;19;20917;-71
2023/04/21 00:57:52;;;;;;;40.80;17.42;;;;;;;7.35;89.84;101769.25;6042458;19;20033;-70
2023/04/21 01:00:19;;;;;;;43.15;17.77;;;;;;;7.27;90.64;101760.66;6027695;19;20424;-71
2023/04/21 01:02:38;;;;;;;37.60;15.68;;;;;;;7.27;90.43;101768.50;6049840;19;20017;-71
2023/04/21 01:07:36;;;;;;;44.67;17.88;;;;;;;7.31;90.61;101770.16;6042898;19;20344;-71
2023/04/21 01:09:50;;;;;;;44.00;18.90;;;;;;;7.23;90.46;101762.41;6036627;19;20502;-71
2023/04/21 01:12:12;;;;;;;46.83;18.55;;;;;;;7.26;91.12;101766.75;6042079;19;20014;-71
2023/04/21 01:14:32;;;;;;;37.67;18.05;;;;;;;7.27;90.95;101763.25;6035338;19;20273;-71
2023/04/21 01:16:52;;;;;;;41.03;17.52;;;;;;;7.23;91.07;101756.31;6015725;19;20082;-72
2023/04/21 01:19:08;;;;;;;40.33;16.15;;;;;;;7.20;91.76;101758.97;6016992;19;20291;-72
2023/04/21 01:21:23;;;;;;;40.42;17.25;;;;;;;7.26;91.40;101769.34;6045003;19;20331;-71
2023/04/21 01:23:35;;;;;;;36.40;15.77;;;;;;;7.29;91.21;101765.84;6002999;19;20668;-72
2023/04/21 01:25:42;;;;;;;39.25;17.20;;;;;;;7.26;91.44;101766.75;6031630;19;20015;-72
2023/04/21 01:28:00;;;;;;;46.92;18.90;;;;;;;7.23;92.08;101764.19;6028727;19;20038;-72
2023/04/21 01:30:09;;;;;;;39.78;17.08;;;;;;;7.23;91.78;101759.81;6043575;19;20351;-72
2023/04/21 01:32:23;;;;;;;40.92;16.33;;;;;;;7.22;92.12;101762.44;6045073;19;20551;-72
2023/04/21 01:34:35;;;;;;;34.72;16.27;;;;;;;7.23;92.20;101756.31;6043766;19;20022;-72
2023/04/21 01:36:43;;;;;;;38.15;16.08;;;;;;;7.20;92.23;101758.97;6054073;19;20233;-72
2023/04/21 01:38:53;;;;;;;38.60;16.67;;;;;;;7.32;92.20;101755.34;6026491;19;20079;-71
2023/04/21 01:41:01;;;;;;;38.47;16.40;;;;;;;7.24;92.26;101756.31;6046075;19;20473;-72
2023/04/21 01:43:07;;;;;;;36.42;16.08;;;;;;;7.22;92.65;101759.84;6043841;19;20301;-71
2023/04/21 01:45:15;;;;;;;39.55;16.13;;;;;;;7.21;92.72;101751.13;6044162;19;20247;-71
2023/04/21 01:47:28;;;;;;;36.60;16.20;;;;;;;7.24;92.23;101748.47;6043223;19;20449;-71
2023/04/21 01:49:36;;;;;;;37.33;17.23;;;;;;;7.28;92.26;101753.66;6039248;19;20010;-72
2023/04/21 01:51:43;;;;;;;37.58;16.27;;;;;;;7.25;92.40;101736.28;6047876;19;20069;-73
2023/04/21 01:53:57;;;;;;;39.50;16.98;;;;;;;7.24;92.33;101738.03;6044679;19;20281;-72
2023/04/21 01:56:13;;;;;;;38.78;16.48;;;;;;;7.27;91.74;101729.28;6008529;19;20377;-72
2023/04/21 01:58:23;;;;;;;34.78;15.70;;;;;;;7.21;92.04;101722.38;6022989;19;20086;-72
2023/04/21 02:00:34;;;;;;;33.97;15.77;;;;;;;7.25;92.10;101718.81;6015791;19;20054;-72
2023/04/21 02:02:46;;;;;;;35.28;15.73;;;;;;;7.24;92.13;101713.59;5999024;19;20007;-73
2023/04/21 02:04:54;;;;;;;;;;;;;;;7.26;92.14;101710.09;6040836;19;20191;-72
2023/04/21 02:07:07;;;;;;;34.53;14.32;;;;;;;7.21;92.48;101711.03;6013294;19;19947;-72
2023/04/21 02:09:19;;;;;;;35.60;14.35;;;;;;;7.18;92.12;101708.47;6041923;19;20223;-72
2023/04/21 02:11:26;;;;;;;34.00;17.05;;;;;;;7.16;92.42;101705.88;6051404;19;20522;-71
2023/04/21 02:13:35;;;;;;;36.75;16.20;;;;;;;7.20;92.32;101710.19;6044496;19;20511;-72
2023/04/21 02:15:51;;;;;;;29.67;14.85;;;;;;;7.25;92.06;101707.50;6038111;19;20291;-72
2023/04/21 02:18:19;;;;;;;37.70;16.98;;;;;;;7.21;92.12;101711.94;6047730;19;20392;-71
2023/04/21 02:20:34;;;;;;;30.45;14.45;;;;;;;7.23;92.16;101702.28;6038151;19;20332;-71
2023/04/21 02:25:08;;;;;;;33.17;14.30;;;;;;;7.25;92.04;101702.28;6034703;19;20988;-71
2023/04/21 02:27:27;;;;;;;33.10;15.32;;;;;;;7.20;92.18;101710.19;6013887;19;20023;-71
2023/04/21 02:29:40;;;;;;;28.88;13.98;;;;;;;7.26;92.28;101701.38;6034290;19;20007;-72
2023/04/21 02:31:54;;;;;;;32.08;14.93;;;;;;;7.22;92.15;101699.72;6047604;19;20011;-72
2023/04/21 02:34:32;;;;;;;29.35;14.65;;;;;;;7.16;92.38;101699.78;6034120;19;20017;-71
2023/04/21 02:36:42;;;;;;;28.13;13.40;;;;;;;7.22;92.74;101699.72;6046257;19;20041;-72
2023/04/21 02:38:52;;;;;;;29.92;13.25;;;;;;;7.22;91.98;101702.34;6018573;19;20430;-72
2023/04/21 02:41:02;;;;;;;33.90;14.27;;;;;;;7.16;92.88;101692.81;6040531;19;20018;-73
2023/04/21 02:43:13;;;;;;;32.55;14.35;;;;;;;7.18;92.63;101691.03;6036139;19;20017;-73
2023/04/21 02:45:29;;;;;;;28.60;14.85;;;;;;;7.17;92.60;101689.31;6036176;19;20101;-73
2023/04/21 02:47:34;;;;;;;30.88;15.15;;;;;;;7.12;92.81;101682.41;6051838;19;20041;-73
2023/04/21 02:49:43;;;;;;;26.85;13.85;;;;;;;7.10;93.26;101698.09;6047256;19;20459;-72
2023/04/21 02:51:54;;;;;;;28.58;14.63;;;;;;;7.15;92.82;101690.22;6037993;19;20182;-73
2023/04/21 02:54:03;;;;;;;25.45;12.80;;;;;;;7.17;92.99;101683.22;6045306;19;20267;-73
2023/04/21 02:56:34;;;;;;;28.48;12.52;;;;;;;7.15;92.73;101688.47;6039341;19;20535;-73
2023/04/21 02:58:45;;;;;;;27.50;12.20;;;;;;;7.13;92.79;101686.75;6040272;19;20006;-72
2023/04/21 03:00:54;;;;;;;27.33;12.80;;;;;;;7.09;92.78;101670.25;6024224;19;20078;-71
2023/04/21 03:03:27;;;;;;;27.52;14.38;;;;;;;7.10;92.77;101676.34;6041324;19;20031;-72
2023/04/21 03:05:35;;;;;;;26.48;12.30;;;;;;;7.14;92.72;101668.44;6041046;19;20010;-71
2023/04/21 03:10:16;;;;;;;27.17;13.63;;;;;;;7.17;92.86;101678.00;6034527;19;20068;-71
2023/04/21 03:12:29;;;;;;;28.38;14.20;;;;;;;7.10;93.50;101687.66;6040040;19;20010;-71
2023/04/21 03:14:39;;;;;;;26.15;13.00;;;;;;;7.13;93.83;101681.50;6024543;19;20014;-71
2023/04/21 03:16:52;;;;;;;24.55;13.85;;;;;;;7.16;93.85;101684.09;6034796;19;20459;-73
2023/04/21 03:19:00;;;;;;;25.33;14.10;;;;;;;7.16;93.72;101681.47;6017870;19;20306;-73
2023/04/21 03:21:25;;;;;;;;;;;;;;;;;;;;;
2023/04/21 03:24:16;;;;;;;27.13;15.30;;;;;;;7.21;93.79;101672.72;6032306;19;20014;-71
2023/04/21 03:26:36;;;;;;;25.15;12.55;;;;;;;7.19;93.76;101660.56;6006400;19;20315;-72
2023/04/21 03:31:45;;;;;;;25.67;13.45;;;;;;;7.19;93.93;101657.94;6004371;19;20714;-72
2023/04/21 03:33:56;;;;;;;28.88;14.98;;;;;;;7.19;94.35;101657.94;6028067;19;20014;-72
2023/04/21 03:36:22;;;;;;;29.83;14.48;;;;;;;7.18;94.45;101654.44;6020391;19;20884;-72
2023/04/21 03:38:58;;;;;;;28.90;15.20;;;;;;;7.09;94.65;101646.72;6011890;19;20126;-71
2023/04/21 03:41:48;;;;;;;28.98;13.40;;;;;;;7.15;94.91;101649.25;6026328;19;20722;-72
2023/04/21 03:49:19;;;;;;;30.75;15.93;;;;;;;7.17;94.85;101636.19;6022570;19;20047;-72
2023/04/21 03:51:37;;;;;;;;;;;;;;;7.18;94.94;101633.53;6026564;19;20291;-72
2023/04/21 03:54:04;;;;;;;35.15;16.42;;;;;;;7.21;94.73;101632.63;6036899;19;20567;-71
2023/04/21 03:56:22;;;;;;;35.00;16.58;;;;;;;7.17;95.01;101634.41;6030051;19;20007;-72
2023/04/21 04:01:20;;;;;;;37.75;18.23;;;;;;;7.19;94.92;101621.34;5986432;19;20014;-72
2023/04/21 04:03:48;;;;;;;36.10;17.35;;;;;;;7.25;94.92;101623.84;6006818;19;20101;-72
2023/04/21 04:05:57;;;;;;;36.90;17.15;;;;;;;7.23;94.85;101620.41;6013405;19;20516;-72
2023/04/21 04:08:03;;;;;;;42.35;19.70;;;;;;;7.18;95.01;101624.81;6040652;19;20195;-72
2023/04/21 04:10:11;;;;;;;44.40;18.98;;;;;;;7.15;95.30;101623.13;6043810;19;20616;-72
2023/04/21 04:12:17;;;;;;;38.13;18.27;;;;;;;7.12;94.93;101617.94;6044290;19;20574;-72
2023/04/21 04:14:25;;;;;;;40.50;19.02;;;;;;;7.17;95.07;101617.88;6039412;19;20298;-72
2023/04/21 04:16:32;;;;;;;41.75;18.52;;;;;;;7.17;94.83;101623.97;6043297;19;20419;-71
2023/04/21 04:18:44;;;;;;;47.08;18.48;;;;;;;7.16;94.85;101623.97;6042953;19;20682;-72
2023/04/21 04:20:52;;;;;;;46.50;19.85;;;;;;;7.16;94.78;101621.34;6041192;19;20006;-72
2023/04/21 04:22:57;;;;;;;41.75;18.25;;;;;;;7.11;95.06;101618.84;6045776;19;20176;-72
2023/04/21 04:25:02;;;;;;;43.30;18.48;;;;;;;7.04;94.73;101625.88;6046831;19;20032;-72
2023/04/21 04:27:09;;;;;;;42.30;18.55;;;;;;;7.06;95.34;101617.13;6042593;19;20216;-72
2023/04/21 04:29:16;;;;;;;44.50;19.92;;;;;;;7.05;95.24;101611.06;6048823;19;20517;-72
2023/04/21 04:31:24;;;;;;;48.40;18.98;;;;;;;7.09;95.09;101615.38;6045943;19;20393;-73
2023/04/21 04:33:32;;;;;;;47.53;20.85;;;;;;;7.11;95.48;101621.44;6047744;19;20423;-73
2023/04/21 04:35:37;;;;;;;43.33;19.60;;;;;;;7.07;95.41;101631.94;6048627;19;20755;-73
2023/04/21 04:37:42;;;;;;;51.13;20.67;;;;;;;7.10;95.75;101626.69;6044735;19;20530;-73
2023/04/21 04:39:49;;;;;;;46.88;20.60;;;;;;;7.08;95.62;101617.97;6048985;19;20413;-73
2023/04/21 04:41:54;;;;;;;52.75;20.20;;;;;;;7.13;95.17;101619.66;6046886;19;20446;-73
2023/04/21 04:44:00;;;;;;;48.83;22.23;;;;;;;7.10;95.46;101618.84;6051788;19;20018;-73
2023/04/21 04:46:07;;;;;;;49.22;21.70;;;;;;;7.07;95.33;101619.75;6048279;19;20529;-73
2023/04/21 04:48:13;;;;;;;56.97;21.98;;;;;;;7.09;95.76;101622.34;6047998;19;20784;-73
2023/04/21 04:50:22;;;;;;;58.22;24.65;;;;;;;7.05;95.93;101626.72;6049473;19;20474;-73
2023/04/21 04:52:27;;;;;;;55.42;22.80;;;;;;;7.10;95.84;101624.06;6048010;19;20094;-73
2023/04/21 04:54:32;;;;;;;52.08;22.63;;;;;;;7.06;95.94;101617.13;6042763;19;20510;-72
2023/04/21 04:56:38;;;;;;;60.05;24.90;;;;;;;7.05;96.37;101626.72;6040243;19;20408;-72
2023/04/21 04:58:46;;;;;;;57.35;23.00;;;;;;;7.07;95.94;101619.75;6044119;19;20450;-73
2023/04/21 05:00:54;;;;;;;54.17;21.92;;;;;;;7.08;96.03;101620.59;6045494;19;20119;-72
2023/04/21 05:03:00;;;;;;;57.47;22.90;;;;;;;7.11;96.05;101628.41;6043102;19;20205;-73
2023/04/21 05:05:05;;;;;;;64.78;24.38;;;;;;;7.12;96.08;101628.38;6039245;19;20423;-74
2023/04/21 05:07:16;;;;;;;60.20;24.77;;;;;;;7.14;96.16;101631.84;6035741;19;20448;-73
2023/04/21 05:09:23;;;;;;;60.67;24.10;;;;;;;7.18;96.44;101630.03;6050410;19;20205;-72
2023/04/21 05:11:30;;;;;;;57.88;24.30;;;;;;;7.15;96.48;101628.34;6052739;19;20236;-74
2023/04/21 05:13:37;;;;;;;54.58;23.27;;;;;;;7.25;96.22;101629.09;6049413;19;20359;-72
2023/04/21 05:15:45;;;;;;;51.80;22.55;;;;;;;7.31;95.89;101639.44;6048019;19;20291;-72
2023/04/21 05:17:52;;;;;;;51.13;23.38;;;;;;;7.33;95.77;101632.44;6041162;19;20031;-72
2023/04/21 05:19:59;;;;;;;63.75;21.85;;;;;;;7.36;96.10;101626.31;6043182;19;20109;-72
2023/04/21 05:22:05;;;;;;;60.03;24.55;;;;;;;7.34;95.91;101628.09;6044546;19;20221;-72
2023/04/21 05:24:13;;;;;;;57.40;24.48;;;;;;;7.38;95.93;101624.56;6045997;19;20019;-72
2023/04/21 05:26:18;;;;;;;52.30;23.25;;;;;;;7.40;96.28;101633.25;6020542;19;20025;-72
2023/04/21 05:28:25;;;;;;;64.15;26.17;;;;;;;7.39;96.20;101626.25;6020834;19;20011;-74
2023/04/21 05:30:34;;;;;;;57.42;24.73;;;;;;;7.41;96.30;101629.72;6000623;19;20404;-72
2023/04/21 05:32:44;;;;;;;65.97;24.60;;;;;;;7.50;95.97;101633.94;6029092;19;20007;-73
2023/04/21 05:35:13;;;;;;;65.10;24.77;;;;;;;7.54;96.13;101626.03;6034875;19;20222;-73
2023/04/21 05:37:40;;;;;;;67.00;24.70;;;;;;;7.56;95.87;101639.97;6047341;19;20017;-74
2023/04/21 05:40:02;;;;;;;62.93;26.63;;;;;;;7.62;95.71;101649.47;6037450;19;20078;-72
2023/04/21 05:42:12;;;;;;;54.35;23.23;;;;;;;7.61;95.68;101646.00;6042152;19;20259;-72
2023/04/21 05:46:39;;;;;;;65.35;24.75;;;;;;;7.70;95.61;101647.59;6043978;19;20015;-72
2023/04/21 05:49:04;;;;;;;68.55;26.42;;;;;;;7.74;95.63;101649.28;6011672;19;20664;-72
2023/04/21 05:51:14;;;;;;;76.95;27.10;;;;;;;7.74;95.40;101649.28;6017963;19;20031;-72
2023/04/21 05:53:29;;;;;;;73.60;28.67;;;;;;;7.73;95.21;101644.94;6019870;19;20398;-72
2023/04/21 05:55:49;;;;;;;72.22;25.40;;;;;;;7.82;95.28;101652.66;6034942;19;20018;-72
2023/04/21 05:58:00;;;;;;;70.10;27.42;;;;;;;7.82;95.35;101655.25;6041512;19;20251;-72
2023/04/21 06:00:20;;;;;;;70.88;26.20;;;;;;;7.82;95.48;101655.25;6048949;19;20498;-72
2023/04/21 06:02:35;;;;;;;71.38;27.23;;;;;;;7.89;95.28;101651.63;6021881;19;20378;-73
2023/04/21 06:04:52;;;;;;;81.20;29.38;;;;;;;7.90;95.22;101652.53;6014633;19;20021;-73
2023/04/21 06:06:58;;;;;;;87.82;31.08;;;;;;;7.88;95.28;101662.16;6034704;19;20799;-73
2023/04/21 06:09:14;;;;;;;72.97;28.77;;;;;;;7.90;95.39;101666.47;6036070;19;20347;-73
2023/04/21 06:11:27;;;;;;;69.78;28.35;;;;;;;7.94;95.00;101661.19;6047785;19;20483;-72
2023/04/21 06:13:38;;;;;;;80.03;30.02;;;;;;;7.92;94.99;101658.56;6036128;19;20593;-72
2023/04/21 06:16:06;;;;;;;79.43;28.63;;;;;;;7.93;95.08;101662.06;6049496;19;20386;-72
2023/04/21 06:18:13;;;;;;;82.30;29.50;;;;;;;7.96;95.24;101659.41;6051123;19;20640;-73
2023/04/21 06:20:27;;;;;;;88.15;31.08;;;;;;;7.88;95.01;101654.28;6047983;19;20649;-71
2023/04/21 06:22:35;;;;;;;72.63;29.05;;;;;;;7.95;95.57;101655.03;6053659;19;20269;-74
2023/04/21 06:24:42;;;;;;;86.95;30.50;;;;;;;7.99;95.53;101651.50;6054225;19;20188;-73
2023/04/21 06:26:52;;;;;;;80.75;29.88;;;;;;;8.06;95.16;101660.97;6042850;19;20199;-73
2023/04/21 06:29:10;;;;;;;91.68;31.10;;;;;;;8.11;94.97;101660.00;6050699;19;20296;-73
2023/04/21 06:31:27;;;;;;;87.72;32.00;;;;;;;8.12;94.51;101658.25;6050273;19;20025;-71
2023/04/21 06:33:34;;;;;;;92.75;30.50;;;;;;;8.12;94.34;101656.50;6045957;19;20049;-71
2023/04/21 06:35:39;;;;;;;92.18;30.15;;;;;;;8.18;94.59;101665.13;6033806;19;20605;-71
2023/04/21 06:37:46;;;;;;;94.68;31.50;;;;;;;8.18;94.51;101668.59;6042724;19;20275;-71
2023/04/21 06:39:52;;;;;;;87.07;33.83;;;;;;;8.12;94.88;101658.25;6044628;19;20241;-72
2023/04/21 06:42:01;;;;;;;84.50;31.13;;;;;;;8.14;94.77;101659.94;6049208;19;20014;-71
2023/04/21 06:44:07;;;;;;;93.70;31.60;;;;;;;8.21;94.25;101655.47;6047037;19;20459;-71
2023/04/21 06:46:13;;;;;;;102.28;32.50;;;;;;;8.22;94.65;101657.19;6050676;19;20299;-72
2023/04/21 06:48:18;;;;;;;96.40;33.83;;;;;;;8.17;94.48;101648.56;6054070;19;20381;-71
2023/04/21 06:50:23;;;;;;;86.32;31.33;;;;;;;8.25;94.00;101662.38;6045450;19;20015;-72
2023/04/21 06:52:28;;;;;;;96.43;33.80;;;;;;;8.23;93.65;101661.53;6044080;19;20013;-72
2023/04/21 06:54:33;;;;;;;95.93;33.72;;;;;;;8.23;94.13;101653.69;6045757;19;20011;-72
2023/04/21 06:56:41;;;;;;;104.32;34.92;;;;;;;8.27;94.11;101650.13;6049220;19;20121;-72
2023/04/21 06:58:51;;;;;;;109.68;34.47;;;;;;;8.30;92.71;101652.69;6043905;19;20023;-73
2023/04/21 07:00:56;;;;;;;96.22;31.30;;;;;;;8.23;92.83;101643.22;6050112;19;20189;-74
2023/04/21 07:03:01;;;;;;;101.70;35.33;;;;;;;8.24;93.00;101652.81;6043337;19;20038;-72
2023/04/21 07:05:07;;;;;;;94.97;34.22;;;;;;;8.34;93.41;101645.63;6050462;19;20030;-72
2023/04/21 07:07:13;;;;;;;101.55;35.13;;;;;;;8.39;92.98;101650.78;6045670;19;20955;-72
2023/04/21 07:09:18;;;;;;;108.97;36.95;;;;;;;8.29;93.09;101647.47;6024031;19;20022;-72
2023/04/21 07:11:24;;;;;;;117.10;39.22;;;;;;;8.26;92.93;101648.38;6044394;19;20176;-74
2023/04/21 07:13:32;;;;;;;111.00;33.97;;;;;;;8.30;92.95;101647.44;6056537;19;20506;-73
2023/04/21 07:15:40;;;;;;;99.40;33.25;;;;;;;8.39;92.47;101646.44;6040299;19;20613;-73
2023/04/21 07:17:46;;;;;;;106.75;32.88;;;;;;;8.32;92.22;101648.28;6040161;19;20164;-72
2023/04/21 07:19:51;;;;;;;103.75;33.63;;;;;;;8.33;92.21;101643.91;6038293;19;20090;-72
2023/04/21 07:21:58;;;;;;;86.75;29.90;;;;;;;8.35;91.62;101647.38;6041137;19;20458;-72
2023/04/21 07:24:04;;;;;;;105.30;35.22;;;;;;;8.38;92.27;101649.06;6039736;19;20801;-73
2023/04/21 07:26:09;;;;;;;102.93;33.97;;;;;;;8.45;91.26;101645.47;6039368;19;20609;-72
2023/04/21 07:28:16;;;;;;;101.38;33.58;;;;;;;8.49;90.67;101644.53;6040587;19;20562;-73
2023/04/21 07:30:23;;;;;;;117.05;36.42;;;;;;;8.46;90.06;101649.81;6039437;19;20044;-72
2023/04/21 07:32:31;;;;;;;108.05;36.60;;;;;;;8.51;90.10;101642.75;6043407;19;20325;-73
2023/04/21 07:34:36;;;;;;;110.97;36.05;;;;;;;8.57;89.80;101650.47;6048006;19;20204;-73
2023/04/21 07:36:42;;;;;;;123.50;38.60;;;;;;;8.69;90.14;101657.22;6045732;19;20495;-73
2023/04/21 07:38:47;;;;;;;116.78;37.88;;;;;;;8.81;89.50;101643.03;6044028;19;20388;-72
2023/04/21 07:40:53;;;;;;;121.03;36.60;;;;;;;8.83;89.05;101651.72;6041047;19;20549;-72
2023/04/21 07:42:58;;;;;;;124.45;39.10;;;;;;;8.93;89.13;101643.66;6043118;19;20195;-72
2023/04/21 07:45:04;;;;;;;119.78;38.35;;;;;;;9.05;88.72;101655.63;6046501;19;20010;-71
2023/04/21 07:47:10;;;;;;;126.78;39.10;;;;;;;9.20;88.54;101654.44;6041463;19;20340;-74
2023/04/21 07:49:22;;;;;;;108.15;37.60;;;;;;;9.11;88.19;101644.13;6043978;19;20351;-73
2023/04/21 07:51:30;;;;;;;121.72;37.75;;;;;;;9.12;87.42;101657.22;6040473;19;20064;-73
2023/04/21 07:53:36;;;;;;;108.03;37.10;;;;;;;9.13;87.72;101656.31;6039520;19;20491;-73
2023/04/21 07:55:41;;;;;;;107.82;37.42;;;;;;;9.13;87.76;101658.94;6040809;19;20007;-72
2023/04/21 07:57:49;;;;;;;108.35;36.58;;;;;;;9.25;87.10;101662.22;6048523;19;20089;-73
2023/04/21 07:59:54;;;;;;;108.05;38.33;;;;;;;9.35;87.65;101653.25;6048444;19;20266;-71
2023/04/21 08:02:00;;;;;;;113.93;37.75;;;;;;;9.78;87.06;101655.72;6048444;19;20542;-71
2023/04/21 08:04:05;;;;;;;104.18;39.45;;;;;;;9.66;85.48;101656.00;6047942;19;20481;-72
2023/04/21 08:06:14;;;;;;;109.43;34.92;;;;;;;9.68;85.93;101651.59;6050786;19;20333;-71
2023/04/21 08:08:23;;;;;;;108.85;36.58;;;;;;;9.81;86.29;101652.16;6036714;19;20014;-71
2023/04/21 08:10:30;;;;;;;101.10;34.45;;;;;;;10.00;84.41;101642.91;6045925;19;20006;-72
2023/04/21 08:12:36;;;;;;;99.63;33.40;;;;;;;10.06;85.04;101641.94;6042503;19;20217;-71
2023/04/21 08:14:42;;;;;;;95.63;36.10;;;;;;;10.01;83.41;101639.41;6040699;19;20241;-70
2023/04/21 08:16:48;;;;;;;98.68;36.20;;;;;;;9.91;83.24;101643.16;6042352;19;20015;-70
2023/04/21 08:18:54;;;;;;;100.60;36.92;;;;;;;10.19;83.09;101650.34;6048283;19;20465;-71
2023/04/21 08:20:59;;;;;;;109.68;36.30;;;;;;;10.51;82.39;101650.38;6041851;19;20034;-71
2023/04/21 08:23:07;;;;;;;104.93;36.40;;;;;;;10.71;80.86;101641.94;6039651;19;20504;-73
2023/04/21 08:25:13;;;;;;;95.35;31.65;;;;;;;10.91;78.51;101630.00;6041054;19;20014;-70
2023/04/21 08:27:18;;;;;;;89.40;34.10;;;;;;;11.30;77.66;101635.84;6041977;19;20053;-70
2023/04/21 08:29:28;;;;;;;96.63;36.03;;;;;;;11.69;76.57;101638.13;6045302;19;20014;-70
2023/04/21 08:31:34;;;;;;;85.90;32.42;;;;;;;11.21;76.76;101636.09;6047540;19;20316;-71
2023/04/21 08:33:40;;;;;;;87.03;33.58;;;;;;;10.99;77.60;101636.75;6042445;19;20437;-70
2023/04/21 08:36:04;;;;;;;88.22;32.08;;;;;;;11.06;78.22;101637.44;6044219;19;20315;-72
2023/04/21 08:38:28;;;;;;;88.88;34.28;;;;;;;11.88;76.58;101632.28;6048708;19;20051;-73
2023/04/21 08:40:36;;;;;;;86.00;32.20;;;;;;;11.85;76.75;101641.97;6043287;19;20046;-70
2023/04/21 08:42:42;;;;;;;88.13;31.20;;;;;;;11.89;75.39;101634.00;6031586;19;20194;-73
2023/04/21 08:44:49;;;;;;;101.03;36.15;;;;;;;11.91;76.60;101637.47;6047051;19;20460;-71
2023/04/21 08:46:58;;;;;;;87.82;33.95;;;;;;;11.75;76.13;101637.91;6041897;19;20388;-71
2023/04/21 08:49:05;;;;;;;88.18;32.63;;;;;;;11.70;74.26;101636.34;6040807;19;20360;-71
2023/04/21 08:51:12;;;;;;;89.80;32.15;;;;;;;11.56;74.62;101635.03;6047476;19;20467;-71
2023/04/21 08:53:30;;;;;;;86.10;33.97;;;;;;;12.05;73.18;101624.66;6037793;19;20551;-73
2023/04/21 08:55:35;;;;;;;76.25;29.15;;;;;;;12.49;71.76;101631.03;6043571;19;20277;-72
2023/04/21 08:57:42;;;;;;;78.60;31.05;;;;;;;11.89;73.00;101628.75;6044222;19;20668;-71
2023/04/21 08:59:48;;;;;;;86.75;33.72;;;;;;;11.54;73.69;101628.09;6047785;19;20078;-72
2023/04/21 09:02:08;;;;;;;84.15;32.97;;;;;;;11.45;74.39;101631.84;6045348;19;20542;-70
2023/04/21 09:04:22;;;;;;;75.57;30.52;;;;;;;11.50;74.33;101636.97;6042518;19;20494;-71
2023/04/21 09:06:44;;;;;;;73.47;31.33;;;;;;;11.64;73.45;101621.63;6049573;19;20014;-72
2023/04/21 09:08:58;;;;;;;81.50;29.95;;;;;;;11.76;74.25;101629.09;6027414;19;20517;-72
2023/04/21 09:11:04;;;;;;;76.30;29.15;;;;;;;12.44;71.43;101626.84;6051263;19;20018;-71
2023/04/21 09:13:10;;;;;;;74.18;27.75;;;;;;;12.35;71.46;101616.59;6048537;19;20479;-71
2023/04/21 09:15:18;;;;;;;75.82;32.03;;;;;;;12.14;72.33;101621.72;6047832;19;20283;-73
2023/04/21 09:17:35;;;;;;;71.85;30.17;;;;;;;11.99;72.51;101622.25;6050485;19;20038;-72
2023/04/21 09:19:41;;;;;;;75.15;28.70;;;;;;;12.12;72.56;101626.19;6056756;19;20196;-71
2023/04/21 09:21:46;;;;;;;60.28;26.65;;;;;;;12.30;70.49;101622.91;6053485;19;20406;-71
2023/04/21 09:23:57;;;;;;;68.85;27.80;;;;;;;12.17;70.60;101623.41;6057743;19;20485;-71
2023/04/21 09:26:07;;;;;;;66.07;27.73;;;;;;;12.77;68.52;101624.75;6057557;19;20022;-70
2023/04/21 09:28:13;;;;;;;65.68;25.85;;;;;;;12.35;69.89;101617.50;6057740;19;20759;-71
2023/04/21 09:30:22;;;;;;;69.00;27.00;;;;;;;12.18;70.79;101619.84;6059542;19;20011;-72
2023/04/21 09:32:28;;;;;;;63.38;27.13;;;;;;;12.27;69.56;101630.94;6052825;19;20585;-70
2023/04/21 09:34:34;;;;;;;64.20;28.13;;;;;;;12.54;68.97;101622.09;6052041;19;20172;-73
2023/04/21 09:36:43;;;;;;;65.63;28.60;;;;;;;12.32;68.81;101622.84;6057426;19;20074;-73
2023/04/21 09:39:00;;;;;;;72.50;27.67;;;;;;;12.59;69.20;101626.28;6046727;19;20007;-70
2023/04/21 09:41:08;;;;;;;67.10;28.35;;;;;;;12.47;69.23;101632.00;6052390;19;20366;-73
2023/04/21 09:43:13;;;;;;;71.88;26.73;;;;;;;12.74;68.90;101623.09;6052747;19;20011;-71
2023/04/21 09:45:19;;;;;;;73.47;27.38;;;;;;;12.71;68.21;101617.06;6049665;19;20529;-70
2023/04/21 09:47:42;;;;;;;67.78;26.70;;;;;;;12.59;68.53;101620.16;6048222;19;20339;-72
2023/04/21 09:49:53;;;;;;;59.83;24.40;;;;;;;12.39;67.46;101619.09;6048495;19;20017;-72
2023/04/21 09:52:01;;;;;;;67.18;26.95;;;;;;;12.38;68.85;101616.53;6044380;19;20108;-73
2023/04/21 09:54:18;;;;;;;59.97;27.05;;;;;;;12.58;68.45;101619.28;6041362;19;20740;-70
2023/04/21 09:56:27;;;;;;;57.60;23.80;;;;;;;12.66;67.29;101619.84;6058582;19;20118;-71
2023/04/21 09:58:39;;;;;;;60.33;25.88;;;;;;;12.72;67.88;101622.28;6052113;19;20022;-71
2023/04/21 10:00:48;;;;;;;63.75;25.73;;;;;;;12.73;67.25;101613.44;6045210;19;20050;-71
2023/04/21 10:02:55;;;;;;;65.13;29.50;;;;;;;12.67;66.67;101600.50;6042463;19;20767;-72
2023/04/21 10:05:01;;;;;;;56.90;25.55;;;;;;;12.73;67.29;101602.03;6026710;19;20415;-73
2023/04/21 10:07:07;;;;;;;56.28;25.33;;;;;;;12.91;67.10;101608.41;6046594;19;20456;-71
2023/04/21 10:09:18;;;;;;;59.65;24.85;;;;;;;12.64;65.62;101619.06;6042294;19;20010;-71
2023/04/21 10:11:23;;;;;;;57.15;24.10;;;;;;;12.74;67.18;101604.63;6045364;19;20031;-71
2023/04/21 10:13:32;;;;;;;60.97;26.23;;;;;;;13.22;66.06;101599.28;6042517;19;20455;-71
2023/04/21 10:15:42;;;;;;;53.65;23.98;;;;;;;13.21;65.80;101598.44;6044653;19;20218;-71
2023/04/21 10:17:48;;;;;;;62.47;27.40;;;;;;;13.41;64.30;101594.19;6047944;19;20430;-71
2023/04/21 10:19:56;;;;;;;64.13;24.88;;;;;;;13.31;63.61;101596.34;6058006;19;20040;-71
2023/04/21 10:22:02;;;;;;;52.55;22.70;;;;;;;13.31;63.87;101584.00;6056931;19;20202;-75
2023/04/21 10:24:08;;;;;;;56.33;23.67;;;;;;;13.23;64.32;101599.25;6062618;19;20034;-74
2023/04/21 10:26:21;;;;;;;57.35;22.75;;;;;;;13.29;64.02;101587.59;6054556;19;20140;-75
2023/04/21 10:28:55;;;;;;;60.78;24.65;;;;;;;13.35;64.26;101584.75;6061345;19;20084;-74
2023/04/21 10:31:22;;;;;;;53.42;23.00;;;;;;;14.12;62.80;101576.25;6055257;19;20438;-75